sensor_id;sensor_type;location;lat;lon;timestamp;P1;durP1;ratioP1;P2;durP2;ratioP2
40537;SDS011;27925;41.874;12.526;2022-10-16T00:00:45;27.77;;;19.00;;
40537;SDS011;27925;41.874;12.526;2022-10-16T00:03:11;28.88;;;20.27;;
40537;SDS011;27925;41.874;12.526;2022-10-16T00:05:40;28.33;;;19.33;;
40537;SDS011;27925;41.874;12.526;2022-10-16T00:08:08;28.90;;;19.35;;
40537;SDS011;27925;41.874;12.526;2022-10-16T00:10:35;30.08;;;20.40;;
40537;SDS011;27925;41.874;12.526;2022-10-16T00:13:02;24.10;;;17.55;;
40537;SDS011;27925;41.874;12.526;2022-10-16T00:15:28;26.35;;;19.08;;
40537;SDS011;27925;41.874;12.526;2022-10-16T00:18:01;24.83;;;19.23;;
40537;SDS011;27925;41.874;12.526;2022-10-16T00:20:29;24.48;;;18.08;;
40537;SDS011;27925;41.874;12.526;2022-10-16T00:22:56;26.30;;;19.35;;
40537;SDS011;27925;41.874;12.526;2022-10-16T00:25:22;25.50;;;18.23;;
40537;SDS011;27925;41.874;12.526;2022-10-16T00:27:51;22.73;;;17.65;;
40537;SDS011;27925;41.874;12.526;2022-10-16T00:30:16;27.05;;;17.90;;
40537;SDS011;27925;41.874;12.526;2022-10-16T00:32:42;26.83;;;17.98;;
40537;SDS011;27925;41.874;12.526;2022-10-16T00:35:08;24.23;;;18.13;;
40537;SDS011;27925;41.874;12.526;2022-10-16T00:37:34;21.80;;;17.00;;
40537;SDS011;27925;41.874;12.526;2022-10-16T00:39:59;24.60;;;17.90;;
40537;SDS011;27925;41.874;12.526;2022-10-16T00:42:25;28.50;;;18.60;;
40537;SDS011;27925;41.874;12.526;2022-10-16T00:44:55;21.15;;;16.17;;
40537;SDS011;27925;41.874;12.526;2022-10-16T00:47:24;23.50;;;15.35;;
40537;SDS011;27925;41.874;12.526;2022-10-16T00:49:58;22.88;;;16.42;;
40537;SDS011;27925;41.874;12.526;2022-10-16T00:52:36;22.15;;;15.02;;
40537;SDS011;27925;41.874;12.526;2022-10-16T00:55:06;24.67;;;15.80;;
40537;SDS011;27925;41.874;12.526;2022-10-16T00:57:34;20.55;;;14.23;;
40537;SDS011;27925;41.874;12.526;2022-10-16T01:00:00;20.98;;;14.38;;
40537;SDS011;27925;41.874;12.526;2022-10-16T01:02:29;22.38;;;12.70;;
40537;SDS011;27925;41.874;12.526;2022-10-16T01:04:54;22.75;;;12.82;;
40537;SDS011;27925;41.874;12.526;2022-10-16T01:17:47;16.52;;;12.32;;
40537;SDS011;27925;41.874;12.526;2022-10-16T01:23:15;21.50;;;13.02;;
40537;SDS011;27925;41.874;12.526;2022-10-16T01:31:31;17.90;;;13.45;;
40537;SDS011;27925;41.874;12.526;2022-10-16T01:34:19;18.45;;;13.38;;
40537;SDS011;27925;41.874;12.526;2022-10-16T01:36:51;19.80;;;14.10;;
40537;SDS011;27925;41.874;12.526;2022-10-16T01:39:21;23.67;;;13.60;;
40537;SDS011;27925;41.874;12.526;2022-10-16T01:41:54;20.17;;;14.45;;
40537;SDS011;27925;41.874;12.526;2022-10-16T01:44:31;19.02;;;13.52;;
40537;SDS011;27925;41.874;12.526;2022-10-16T01:46:59;18.13;;;12.80;;
40537;SDS011;27925;41.874;12.526;2022-10-16T01:49:28;18.95;;;13.50;;
40537;SDS011;27925;41.874;12.526;2022-10-16T01:51:58;18.13;;;12.57;;
40537;SDS011;27925;41.874;12.526;2022-10-16T01:54:27;18.77;;;13.10;;
40537;SDS011;27925;41.874;12.526;2022-10-16T01:56:55;21.70;;;11.70;;
40537;SDS011;27925;41.874;12.526;2022-10-16T01:59:23;19.70;;;11.77;;
40537;SDS011;27925;41.874;12.526;2022-10-16T02:01:54;16.35;;;12.18;;
40537;SDS011;27925;41.874;12.526;2022-10-16T02:04:27;16.10;;;12.65;;
40537;SDS011;27925;41.874;12.526;2022-10-16T02:06:58;16.92;;;11.38;;
40537;SDS011;27925;41.874;12.526;2022-10-16T02:09:24;19.02;;;12.23;;
40537;SDS011;27925;41.874;12.526;2022-10-16T02:11:52;16.92;;;11.35;;
40537;SDS011;27925;41.874;12.526;2022-10-16T02:14:20;17.27;;;10.85;;
40537;SDS011;27925;41.874;12.526;2022-10-16T02:16:49;13.98;;;10.77;;
40537;SDS011;27925;41.874;12.526;2022-10-16T02:19:15;16.10;;;10.70;;
40537;SDS011;27925;41.874;12.526;2022-10-16T02:21:54;18.30;;;11.13;;
40537;SDS011;27925;41.874;12.526;2022-10-16T02:24:31;15.50;;;11.65;;
40537;SDS011;27925;41.874;12.526;2022-10-16T02:29:38;16.67;;;10.50;;
40537;SDS011;27925;41.874;12.526;2022-10-16T02:32:13;17.70;;;11.00;;
40537;SDS011;27925;41.874;12.526;2022-10-16T02:34:44;17.45;;;10.57;;
40537;SDS011;27925;41.874;12.526;2022-10-16T02:37:11;14.98;;;10.35;;
40537;SDS011;27925;41.874;12.526;2022-10-16T02:39:38;16.48;;;9.93;;
40537;SDS011;27925;41.874;12.526;2022-10-16T02:42:09;17.95;;;10.10;;
40537;SDS011;27925;41.874;12.526;2022-10-16T02:44:39;12.57;;;9.88;;
40537;SDS011;27925;41.874;12.526;2022-10-16T02:47:05;17.60;;;9.55;;
40537;SDS011;27925;41.874;12.526;2022-10-16T02:49:31;14.82;;;9.60;;
40537;SDS011;27925;41.874;12.526;2022-10-16T02:51:56;12.88;;;9.05;;
40537;SDS011;27925;41.874;12.526;2022-10-16T02:54:22;15.50;;;10.05;;
40537;SDS011;27925;41.874;12.526;2022-10-16T02:56:48;12.90;;;9.32;;
40537;SDS011;27925;41.874;12.526;2022-10-16T02:59:14;13.50;;;9.57;;
40537;SDS011;27925;41.874;12.526;2022-10-16T03:01:41;15.82;;;9.60;;
40537;SDS011;27925;41.874;12.526;2022-10-16T03:04:07;14.38;;;9.73;;
40537;SDS011;27925;41.874;12.526;2022-10-16T03:06:33;13.10;;;9.80;;
40537;SDS011;27925;41.874;12.526;2022-10-16T03:08:59;13.27;;;9.63;;
40537;SDS011;27925;41.874;12.526;2022-10-16T03:11:25;15.27;;;10.00;;
40537;SDS011;27925;41.874;12.526;2022-10-16T03:13:51;15.48;;;9.05;;
40537;SDS011;27925;41.874;12.526;2022-10-16T03:16:17;13.30;;;9.98;;
40537;SDS011;27925;41.874;12.526;2022-10-16T03:18:43;15.73;;;10.20;;
40537;SDS011;27925;41.874;12.526;2022-10-16T03:21:12;15.15;;;10.65;;
40537;SDS011;27925;41.874;12.526;2022-10-16T03:23:38;16.17;;;9.80;;
40537;SDS011;27925;41.874;12.526;2022-10-16T03:26:04;16.63;;;11.13;;
40537;SDS011;27925;41.874;12.526;2022-10-16T03:28:29;16.02;;;9.27;;
40537;SDS011;27925;41.874;12.526;2022-10-16T03:30:57;18.67;;;10.20;;
40537;SDS011;27925;41.874;12.526;2022-10-16T03:33:22;13.38;;;10.60;;
40537;SDS011;27925;41.874;12.526;2022-10-16T03:35:51;17.83;;;11.32;;
40537;SDS011;27925;41.874;12.526;2022-10-16T03:38:19;14.20;;;10.73;;
40537;SDS011;27925;41.874;12.526;2022-10-16T03:40:45;16.75;;;11.25;;
40537;SDS011;27925;41.874;12.526;2022-10-16T03:43:10;23.17;;;12.15;;
40537;SDS011;27925;41.874;12.526;2022-10-16T03:45:36;17.77;;;11.40;;
40537;SDS011;27925;41.874;12.526;2022-10-16T03:48:02;21.05;;;12.52;;
40537;SDS011;27925;41.874;12.526;2022-10-16T03:50:28;18.95;;;12.25;;
40537;SDS011;27925;41.874;12.526;2022-10-16T03:52:54;14.93;;;11.40;;
40537;SDS011;27925;41.874;12.526;2022-10-16T03:55:20;18.98;;;11.20;;
40537;SDS011;27925;41.874;12.526;2022-10-16T03:57:46;14.77;;;11.10;;
40537;SDS011;27925;41.874;12.526;2022-10-16T04:00:12;19.70;;;11.52;;
40537;SDS011;27925;41.874;12.526;2022-10-16T04:02:38;18.15;;;11.00;;
40537;SDS011;27925;41.874;12.526;2022-10-16T04:05:04;16.13;;;11.52;;
40537;SDS011;27925;41.874;12.526;2022-10-16T04:07:30;24.13;;;12.73;;
40537;SDS011;27925;41.874;12.526;2022-10-16T04:09:56;17.13;;;12.18;;
40537;SDS011;27925;41.874;12.526;2022-10-16T04:12:23;18.67;;;12.63;;
40537;SDS011;27925;41.874;12.526;2022-10-16T04:14:50;21.65;;;14.00;;
40537;SDS011;27925;41.874;12.526;2022-10-16T04:17:15;18.02;;;12.80;;
40537;SDS011;27925;41.874;12.526;2022-10-16T04:19:41;18.05;;;12.73;;
40537;SDS011;27925;41.874;12.526;2022-10-16T04:22:07;18.38;;;12.85;;
40537;SDS011;27925;41.874;12.526;2022-10-16T04:24:33;18.02;;;12.55;;
40537;SDS011;27925;41.874;12.526;2022-10-16T04:27:00;18.88;;;13.23;;
40537;SDS011;27925;41.874;12.526;2022-10-16T04:29:26;18.77;;;12.32;;
40537;SDS011;27925;41.874;12.526;2022-10-16T04:31:51;18.17;;;12.70;;
40537;SDS011;27925;41.874;12.526;2022-10-16T04:34:17;15.20;;;10.88;;
40537;SDS011;27925;41.874;12.526;2022-10-16T04:36:43;18.83;;;12.07;;
40537;SDS011;27925;41.874;12.526;2022-10-16T04:39:09;20.02;;;12.15;;
40537;SDS011;27925;41.874;12.526;2022-10-16T04:41:35;15.75;;;11.80;;
40537;SDS011;27925;41.874;12.526;2022-10-16T04:44:01;18.77;;;11.38;;
40537;SDS011;27925;41.874;12.526;2022-10-16T04:46:28;15.73;;;10.73;;
40537;SDS011;27925;41.874;12.526;2022-10-16T04:48:53;18.08;;;12.23;;
40537;SDS011;27925;41.874;12.526;2022-10-16T04:51:22;19.38;;;11.07;;
40537;SDS011;27925;41.874;12.526;2022-10-16T04:53:48;19.13;;;11.23;;
40537;SDS011;27925;41.874;12.526;2022-10-16T04:56:13;16.25;;;11.52;;
40537;SDS011;27925;41.874;12.526;2022-10-16T04:58:40;19.45;;;11.90;;
40537;SDS011;27925;41.874;12.526;2022-10-16T05:01:06;14.50;;;10.45;;
40537;SDS011;27925;41.874;12.526;2022-10-16T05:03:31;14.77;;;10.90;;
40537;SDS011;27925;41.874;12.526;2022-10-16T05:05:57;14.73;;;9.85;;
40537;SDS011;27925;41.874;12.526;2022-10-16T05:08:23;16.45;;;9.95;;
40537;SDS011;27925;41.874;12.526;2022-10-16T05:10:49;13.68;;;10.05;;
40537;SDS011;27925;41.874;12.526;2022-10-16T05:13:14;16.63;;;11.15;;
40537;SDS011;27925;41.874;12.526;2022-10-16T05:15:40;16.20;;;11.13;;
40537;SDS011;27925;41.874;12.526;2022-10-16T05:18:06;13.60;;;9.90;;
40537;SDS011;27925;41.874;12.526;2022-10-16T05:20:31;14.25;;;9.73;;
40537;SDS011;27925;41.874;12.526;2022-10-16T05:22:57;14.43;;;11.35;;
40537;SDS011;27925;41.874;12.526;2022-10-16T05:25:23;15.02;;;9.90;;
40537;SDS011;27925;41.874;12.526;2022-10-16T05:27:49;12.55;;;9.02;;
40537;SDS011;27925;41.874;12.526;2022-10-16T05:30:15;14.15;;;9.57;;
40537;SDS011;27925;41.874;12.526;2022-10-16T05:32:41;13.15;;;9.20;;
40537;SDS011;27925;41.874;12.526;2022-10-16T05:35:11;20.20;;;9.65;;
40537;SDS011;27925;41.874;12.526;2022-10-16T05:37:37;17.77;;;11.10;;
40537;SDS011;27925;41.874;12.526;2022-10-16T05:40:03;12.90;;;10.00;;
40537;SDS011;27925;41.874;12.526;2022-10-16T05:42:29;15.40;;;9.23;;
40537;SDS011;27925;41.874;12.526;2022-10-16T05:44:55;13.63;;;9.95;;
40537;SDS011;27925;41.874;12.526;2022-10-16T05:47:21;14.40;;;9.43;;
40537;SDS011;27925;41.874;12.526;2022-10-16T05:49:47;18.25;;;10.73;;
40537;SDS011;27925;41.874;12.526;2022-10-16T05:52:14;14.32;;;10.35;;
40537;SDS011;27925;41.874;12.526;2022-10-16T05:54:41;13.50;;;9.93;;
40537;SDS011;27925;41.874;12.526;2022-10-16T05:57:07;15.50;;;10.02;;
40537;SDS011;27925;41.874;12.526;2022-10-16T05:59:32;14.95;;;9.88;;
40537;SDS011;27925;41.874;12.526;2022-10-16T06:01:58;17.05;;;9.73;;
40537;SDS011;27925;41.874;12.526;2022-10-16T06:04:25;15.02;;;9.60;;
40537;SDS011;27925;41.874;12.526;2022-10-16T06:06:50;15.40;;;10.27;;
40537;SDS011;27925;41.874;12.526;2022-10-16T06:09:16;17.58;;;10.65;;
40537;SDS011;27925;41.874;12.526;2022-10-16T06:11:42;14.20;;;10.13;;
40537;SDS011;27925;41.874;12.526;2022-10-16T06:14:08;16.10;;;9.98;;
40537;SDS011;27925;41.874;12.526;2022-10-16T06:16:34;16.13;;;10.25;;
40537;SDS011;27925;41.874;12.526;2022-10-16T06:19:01;15.43;;;10.85;;
40537;SDS011;27925;41.874;12.526;2022-10-16T06:21:31;17.02;;;10.13;;
40537;SDS011;27925;41.874;12.526;2022-10-16T06:23:57;15.65;;;9.88;;
40537;SDS011;27925;41.874;12.526;2022-10-16T06:26:24;14.73;;;9.55;;
40537;SDS011;27925;41.874;12.526;2022-10-16T06:28:53;15.13;;;9.48;;
40537;SDS011;27925;41.874;12.526;2022-10-16T06:31:20;13.45;;;8.77;;
40537;SDS011;27925;41.874;12.526;2022-10-16T06:33:49;16.98;;;10.00;;
40537;SDS011;27925;41.874;12.526;2022-10-16T06:36:16;18.38;;;9.73;;
40537;SDS011;27925;41.874;12.526;2022-10-16T06:38:43;14.00;;;10.05;;
40537;SDS011;27925;41.874;12.526;2022-10-16T06:41:11;15.30;;;9.10;;
40537;SDS011;27925;41.874;12.526;2022-10-16T06:43:41;12.02;;;9.02;;
40537;SDS011;27925;41.874;12.526;2022-10-16T06:46:12;13.50;;;8.45;;
40537;SDS011;27925;41.874;12.526;2022-10-16T06:48:40;14.48;;;8.65;;
40537;SDS011;27925;41.874;12.526;2022-10-16T06:51:10;13.80;;;9.85;;
40537;SDS011;27925;41.874;12.526;2022-10-16T06:53:39;15.18;;;10.77;;
40537;SDS011;27925;41.874;12.526;2022-10-16T06:56:10;14.00;;;9.43;;
40537;SDS011;27925;41.874;12.526;2022-10-16T06:58:37;36.15;;;25.48;;
40537;SDS011;27925;41.874;12.526;2022-10-16T07:01:05;13.50;;;8.90;;
40537;SDS011;27925;41.874;12.526;2022-10-16T07:03:31;15.13;;;9.43;;
40537;SDS011;27925;41.874;12.526;2022-10-16T07:06:01;13.38;;;9.20;;
40537;SDS011;27925;41.874;12.526;2022-10-16T07:08:38;15.10;;;8.07;;
40537;SDS011;27925;41.874;12.526;2022-10-16T07:11:10;12.27;;;7.22;;
40537;SDS011;27925;41.874;12.526;2022-10-16T07:13:39;16.05;;;8.30;;
40537;SDS011;27925;41.874;12.526;2022-10-16T07:18:37;11.85;;;8.13;;
40537;SDS011;27925;41.874;12.526;2022-10-16T07:21:09;11.43;;;8.15;;
40537;SDS011;27925;41.874;12.526;2022-10-16T07:23:37;12.50;;;8.32;;
40537;SDS011;27925;41.874;12.526;2022-10-16T07:26:03;15.43;;;8.60;;
40537;SDS011;27925;41.874;12.526;2022-10-16T07:28:30;12.57;;;8.65;;
40537;SDS011;27925;41.874;12.526;2022-10-16T07:31:04;13.38;;;9.13;;
40537;SDS011;27925;41.874;12.526;2022-10-16T07:33:32;12.93;;;8.98;;
40537;SDS011;27925;41.874;12.526;2022-10-16T07:35:59;13.98;;;8.57;;
40537;SDS011;27925;41.874;12.526;2022-10-16T07:38:24;13.30;;;9.35;;
40537;SDS011;27925;41.874;12.526;2022-10-16T07:41:01;12.23;;;8.13;;
40537;SDS011;27925;41.874;12.526;2022-10-16T07:43:31;17.45;;;8.45;;
40537;SDS011;27925;41.874;12.526;2022-10-16T07:45:57;13.85;;;7.05;;
40537;SDS011;27925;41.874;12.526;2022-10-16T07:48:24;12.10;;;7.15;;
40537;SDS011;27925;41.874;12.526;2022-10-16T07:50:56;12.77;;;7.20;;
40537;SDS011;27925;41.874;12.526;2022-10-16T07:53:26;13.82;;;7.88;;
40537;SDS011;27925;41.874;12.526;2022-10-16T07:55:52;13.63;;;7.70;;
40537;SDS011;27925;41.874;12.526;2022-10-16T07:58:22;11.48;;;7.30;;
40537;SDS011;27925;41.874;12.526;2022-10-16T08:00:48;12.02;;;7.28;;
40537;SDS011;27925;41.874;12.526;2022-10-16T08:03:14;14.52;;;8.18;;
40537;SDS011;27925;41.874;12.526;2022-10-16T08:05:41;12.43;;;7.95;;
40537;SDS011;27925;41.874;12.526;2022-10-16T08:08:11;13.50;;;7.78;;
40537;SDS011;27925;41.874;12.526;2022-10-16T08:10:39;13.30;;;7.32;;
40537;SDS011;27925;41.874;12.526;2022-10-16T08:13:05;13.20;;;8.07;;
40537;SDS011;27925;41.874;12.526;2022-10-16T08:15:31;17.38;;;8.95;;
40537;SDS011;27925;41.874;12.526;2022-10-16T08:18:01;14.88;;;8.25;;
40537;SDS011;27925;41.874;12.526;2022-10-16T08:20:28;17.58;;;8.52;;
40537;SDS011;27925;41.874;12.526;2022-10-16T08:22:55;14.40;;;8.48;;
40537;SDS011;27925;41.874;12.526;2022-10-16T08:25:21;13.70;;;8.48;;
40537;SDS011;27925;41.874;12.526;2022-10-16T08:27:48;15.35;;;8.30;;
40537;SDS011;27925;41.874;12.526;2022-10-16T08:30:14;12.60;;;8.38;;
40537;SDS011;27925;41.874;12.526;2022-10-16T08:32:40;10.80;;;7.40;;
40537;SDS011;27925;41.874;12.526;2022-10-16T08:35:07;13.95;;;7.68;;
40537;SDS011;27925;41.874;12.526;2022-10-16T08:37:34;11.98;;;7.15;;
40537;SDS011;27925;41.874;12.526;2022-10-16T08:40:00;11.45;;;7.20;;
40537;SDS011;27925;41.874;12.526;2022-10-16T08:42:36;20.30;;;8.52;;
40537;SDS011;27925;41.874;12.526;2022-10-16T08:48:17;12.10;;;7.40;;
40537;SDS011;27925;41.874;12.526;2022-10-16T08:50:52;13.27;;;6.90;;
40537;SDS011;27925;41.874;12.526;2022-10-16T08:53:24;16.02;;;7.63;;
40537;SDS011;27925;41.874;12.526;2022-10-16T08:55:55;12.00;;;7.50;;
40537;SDS011;27925;41.874;12.526;2022-10-16T08:58:27;11.60;;;7.28;;
40537;SDS011;27925;41.874;12.526;2022-10-16T09:00:55;14.45;;;7.40;;
40537;SDS011;27925;41.874;12.526;2022-10-16T09:09:24;9.63;;;6.72;;
40537;SDS011;27925;41.874;12.526;2022-10-16T09:11:59;15.20;;;8.32;;
40537;SDS011;27925;41.874;12.526;2022-10-16T09:14:50;9.80;;;6.90;;
40537;SDS011;27925;41.874;12.526;2022-10-16T09:20:38;16.80;;;9.25;;
40537;SDS011;27925;41.874;12.526;2022-10-16T09:22:47;12.50;;;7.10;;
40537;SDS011;27925;41.874;12.526;2022-10-16T09:25:17;11.85;;;6.78;;
40537;SDS011;27925;41.874;12.526;2022-10-16T09:27:45;14.30;;;7.40;;
40537;SDS011;27925;41.874;12.526;2022-10-16T09:30:15;14.15;;;7.25;;
40537;SDS011;27925;41.874;12.526;2022-10-16T09:32:50;10.85;;;6.57;;
40537;SDS011;27925;41.874;12.526;2022-10-16T09:35:20;9.52;;;6.50;;
40537;SDS011;27925;41.874;12.526;2022-10-16T09:37:56;11.48;;;6.90;;
40537;SDS011;27925;41.874;12.526;2022-10-16T09:40:30;10.25;;;6.18;;
40537;SDS011;27925;41.874;12.526;2022-10-16T09:45:41;9.65;;;6.07;;
40537;SDS011;27925;41.874;12.526;2022-10-16T09:48:11;12.50;;;5.78;;
40537;SDS011;27925;41.874;12.526;2022-10-16T09:50:42;9.93;;;6.47;;
40537;SDS011;27925;41.874;12.526;2022-10-16T09:53:12;17.38;;;8.05;;
40537;SDS011;27925;41.874;12.526;2022-10-16T09:55:49;12.32;;;6.97;;
40537;SDS011;27925;41.874;12.526;2022-10-16T09:58:16;10.23;;;5.45;;
40537;SDS011;27925;41.874;12.526;2022-10-16T10:00:53;11.90;;;6.07;;
40537;SDS011;27925;41.874;12.526;2022-10-16T10:03:30;11.50;;;6.00;;
40537;SDS011;27925;41.874;12.526;2022-10-16T10:06:16;10.02;;;5.10;;
40537;SDS011;27925;41.874;12.526;2022-10-16T10:08:55;11.98;;;5.95;;
40537;SDS011;27925;41.874;12.526;2022-10-16T10:17:07;10.20;;;4.90;;
40537;SDS011;27925;41.874;12.526;2022-10-16T10:19:40;9.52;;;4.40;;
40537;SDS011;27925;41.874;12.526;2022-10-16T10:22:25;8.30;;;3.65;;
40537;SDS011;27925;41.874;12.526;2022-10-16T10:25:34;7.70;;;3.70;;
40537;SDS011;27925;41.874;12.526;2022-10-16T10:28:22;9.65;;;3.80;;
40537;SDS011;27925;41.874;12.526;2022-10-16T10:31:02;9.43;;;3.72;;
40537;SDS011;27925;41.874;12.526;2022-10-16T10:39:00;9.00;;;3.95;;
40537;SDS011;27925;41.874;12.526;2022-10-16T10:50:36;7.82;;;3.40;;
40537;SDS011;27925;41.874;12.526;2022-10-16T10:55:49;9.05;;;3.15;;
40537;SDS011;27925;41.874;12.526;2022-10-16T11:01:59;8.40;;;2.90;;
40537;SDS011;27925;41.874;12.526;2022-10-16T11:04:54;7.30;;;3.35;;
40537;SDS011;27925;41.874;12.526;2022-10-16T11:08:01;16.95;;;10.75;;
40537;SDS011;27925;41.874;12.526;2022-10-16T11:15:53;7.57;;;3.08;;
40537;SDS011;27925;41.874;12.526;2022-10-16T11:18:30;7.07;;;3.08;;
40537;SDS011;27925;41.874;12.526;2022-10-16T11:21:04;6.00;;;2.40;;
40537;SDS011;27925;41.874;12.526;2022-10-16T11:23:45;5.43;;;2.47;;
40537;SDS011;27925;41.874;12.526;2022-10-16T11:26:28;7.53;;;3.50;;
40537;SDS011;27925;41.874;12.526;2022-10-16T11:28:58;7.22;;;3.00;;
40537;SDS011;27925;41.874;12.526;2022-10-16T11:31:37;6.22;;;2.75;;
40537;SDS011;27925;41.874;12.526;2022-10-16T11:37:08;7.65;;;2.85;;
40537;SDS011;27925;41.874;12.526;2022-10-16T11:39:38;6.07;;;2.85;;
40537;SDS011;27925;41.874;12.526;2022-10-16T11:42:08;7.65;;;3.33;;
40537;SDS011;27925;41.874;12.526;2022-10-16T11:44:41;8.10;;;3.30;;
40537;SDS011;27925;41.874;12.526;2022-10-16T11:55:55;7.15;;;3.45;;
40537;SDS011;27925;41.874;12.526;2022-10-16T12:08:59;6.78;;;2.72;;
40537;SDS011;27925;41.874;12.526;2022-10-16T12:16:32;7.50;;;3.10;;
40537;SDS011;27925;41.874;12.526;2022-10-16T12:19:13;6.05;;;2.65;;
40537;SDS011;27925;41.874;12.526;2022-10-16T12:21:41;6.30;;;2.60;;
40537;SDS011;27925;41.874;12.526;2022-10-16T12:26:59;5.60;;;2.25;;
40537;SDS011;27925;41.874;12.526;2022-10-16T12:32:00;3.58;;;1.90;;
40537;SDS011;27925;41.874;12.526;2022-10-16T12:34:29;5.07;;;2.33;;
40537;SDS011;27925;41.874;12.526;2022-10-16T12:37:23;6.50;;;2.55;;
40537;SDS011;27925;41.874;12.526;2022-10-16T12:39:54;5.40;;;2.15;;
40537;SDS011;27925;41.874;12.526;2022-10-16T12:44:59;7.45;;;2.47;;
40537;SDS011;27925;41.874;12.526;2022-10-16T12:49:58;6.85;;;2.40;;
40537;SDS011;27925;41.874;12.526;2022-10-16T12:52:28;4.30;;;2.15;;
40537;SDS011;27925;41.874;12.526;2022-10-16T12:55:03;6.97;;;2.47;;
40537;SDS011;27925;41.874;12.526;2022-10-16T13:00:55;7.30;;;2.72;;
40537;SDS011;27925;41.874;12.526;2022-10-16T13:28:08;8.15;;;2.95;;
40537;SDS011;27925;41.874;12.526;2022-10-16T13:30:52;5.93;;;3.05;;
40537;SDS011;27925;41.874;12.526;2022-10-16T13:33:37;7.18;;;2.88;;
40537;SDS011;27925;41.874;12.526;2022-10-16T13:36:17;5.40;;;2.15;;
40537;SDS011;27925;41.874;12.526;2022-10-16T13:38:49;3.85;;;2.22;;
40537;SDS011;27925;41.874;12.526;2022-10-16T13:44:13;5.18;;;2.60;;
40537;SDS011;27925;41.874;12.526;2022-10-16T13:46:43;6.50;;;2.63;;
40537;SDS011;27925;41.874;12.526;2022-10-16T13:49:14;4.97;;;2.70;;
40537;SDS011;27925;41.874;12.526;2022-10-16T13:51:47;5.18;;;2.78;;
40537;SDS011;27925;41.874;12.526;2022-10-16T13:54:23;6.80;;;2.72;;
40537;SDS011;27925;41.874;12.526;2022-10-16T13:56:49;6.28;;;2.03;;
40537;SDS011;27925;41.874;12.526;2022-10-16T13:59:25;5.18;;;2.33;;
40537;SDS011;27925;41.874;12.526;2022-10-16T14:02:49;6.15;;;1.83;;
40537;SDS011;27925;41.874;12.526;2022-10-16T14:04:57;7.25;;;2.20;;
40537;SDS011;27925;41.874;12.526;2022-10-16T14:07:28;7.63;;;2.20;;
40537;SDS011;27925;41.874;12.526;2022-10-16T14:10:00;7.45;;;2.63;;
40537;SDS011;27925;41.874;12.526;2022-10-16T14:12:31;5.88;;;2.30;;
40537;SDS011;27925;41.874;12.526;2022-10-16T14:14:57;5.88;;;2.28;;
40537;SDS011;27925;41.874;12.526;2022-10-16T14:19:57;5.72;;;2.00;;
40537;SDS011;27925;41.874;12.526;2022-10-16T14:22:40;8.27;;;2.58;;
40537;SDS011;27925;41.874;12.526;2022-10-16T14:27:44;11.95;;;6.90;;
40537;SDS011;27925;41.874;12.526;2022-10-16T14:30:12;6.68;;;2.55;;
40537;SDS011;27925;41.874;12.526;2022-10-16T14:32:55;6.95;;;2.60;;
40537;SDS011;27925;41.874;12.526;2022-10-16T14:35:42;5.97;;;2.17;;
40537;SDS011;27925;41.874;12.526;2022-10-16T14:38:18;7.43;;;2.50;;
40537;SDS011;27925;41.874;12.526;2022-10-16T14:40:48;6.72;;;2.13;;
40537;SDS011;27925;41.874;12.526;2022-10-16T14:43:20;6.25;;;2.03;;
40537;SDS011;27925;41.874;12.526;2022-10-16T14:45:57;8.85;;;2.30;;
40537;SDS011;27925;41.874;12.526;2022-10-16T14:48:25;4.53;;;2.10;;
40537;SDS011;27925;41.874;12.526;2022-10-16T14:50:51;6.60;;;2.15;;
40537;SDS011;27925;41.874;12.526;2022-10-16T14:53:21;4.90;;;1.58;;
40537;SDS011;27925;41.874;12.526;2022-10-16T14:55:47;9.88;;;1.90;;
40537;SDS011;27925;41.874;12.526;2022-10-16T14:58:20;8.10;;;1.90;;
40537;SDS011;27925;41.874;12.526;2022-10-16T15:00:48;6.72;;;1.92;;
40537;SDS011;27925;41.874;12.526;2022-10-16T15:03:14;8.15;;;2.00;;
40537;SDS011;27925;41.874;12.526;2022-10-16T15:05:40;4.13;;;1.60;;
40537;SDS011;27925;41.874;12.526;2022-10-16T15:08:06;6.53;;;1.90;;
40537;SDS011;27925;41.874;12.526;2022-10-16T15:10:33;6.85;;;1.90;;
40537;SDS011;27925;41.874;12.526;2022-10-16T15:13:03;9.38;;;2.47;;
40537;SDS011;27925;41.874;12.526;2022-10-16T15:15:42;7.60;;;2.10;;
40537;SDS011;27925;41.874;12.526;2022-10-16T15:18:09;6.00;;;2.00;;
40537;SDS011;27925;41.874;12.526;2022-10-16T15:20:36;8.43;;;2.35;;
40537;SDS011;27925;41.874;12.526;2022-10-16T15:23:04;6.78;;;2.05;;
40537;SDS011;27925;41.874;12.526;2022-10-16T15:25:45;5.75;;;2.15;;
40537;SDS011;27925;41.874;12.526;2022-10-16T15:28:19;8.95;;;2.50;;
40537;SDS011;27925;41.874;12.526;2022-10-16T15:30:48;5.45;;;1.83;;
40537;SDS011;27925;41.874;12.526;2022-10-16T15:33:19;7.10;;;2.13;;
40537;SDS011;27925;41.874;12.526;2022-10-16T15:35:48;4.47;;;1.70;;
40537;SDS011;27925;41.874;12.526;2022-10-16T15:38:16;6.45;;;1.48;;
40537;SDS011;27925;41.874;12.526;2022-10-16T15:40:44;6.30;;;1.95;;
40537;SDS011;27925;41.874;12.526;2022-10-16T15:43:10;9.63;;;2.05;;
40537;SDS011;27925;41.874;12.526;2022-10-16T15:45:36;5.38;;;1.90;;
40537;SDS011;27925;41.874;12.526;2022-10-16T15:48:02;7.70;;;2.08;;
40537;SDS011;27925;41.874;12.526;2022-10-16T15:50:28;7.63;;;2.22;;
40537;SDS011;27925;41.874;12.526;2022-10-16T15:52:55;7.18;;;2.22;;
40537;SDS011;27925;41.874;12.526;2022-10-16T15:55:23;6.28;;;1.98;;
40537;SDS011;27925;41.874;12.526;2022-10-16T15:57:51;4.50;;;1.98;;
40537;SDS011;27925;41.874;12.526;2022-10-16T16:00:18;8.57;;;2.38;;
40537;SDS011;27925;41.874;12.526;2022-10-16T16:02:51;9.95;;;2.20;;
40537;SDS011;27925;41.874;12.526;2022-10-16T16:05:18;8.82;;;2.40;;
40537;SDS011;27925;41.874;12.526;2022-10-16T16:07:45;8.07;;;2.58;;
40537;SDS011;27925;41.874;12.526;2022-10-16T16:10:11;8.10;;;2.22;;
40537;SDS011;27925;41.874;12.526;2022-10-16T16:12:37;6.15;;;1.98;;
40537;SDS011;27925;41.874;12.526;2022-10-16T16:15:04;8.15;;;1.65;;
40537;SDS011;27925;41.874;12.526;2022-10-16T16:17:31;10.75;;;1.90;;
40537;SDS011;27925;41.874;12.526;2022-10-16T16:19:58;5.18;;;1.73;;
40537;SDS011;27925;41.874;12.526;2022-10-16T16:22:24;6.63;;;2.15;;
40537;SDS011;27925;41.874;12.526;2022-10-16T16:24:51;4.90;;;2.00;;
40537;SDS011;27925;41.874;12.526;2022-10-16T16:27:20;8.68;;;2.10;;
40537;SDS011;27925;41.874;12.526;2022-10-16T16:29:46;5.18;;;1.60;;
40537;SDS011;27925;41.874;12.526;2022-10-16T16:32:12;6.22;;;1.58;;
40537;SDS011;27925;41.874;12.526;2022-10-16T16:34:38;8.05;;;2.58;;
40537;SDS011;27925;41.874;12.526;2022-10-16T16:37:04;8.45;;;2.10;;
40537;SDS011;27925;41.874;12.526;2022-10-16T16:39:29;7.63;;;2.28;;
40537;SDS011;27925;41.874;12.526;2022-10-16T16:41:56;5.45;;;1.83;;
40537;SDS011;27925;41.874;12.526;2022-10-16T16:44:26;7.90;;;2.45;;
40537;SDS011;27925;41.874;12.526;2022-10-16T16:46:52;9.27;;;2.42;;
40537;SDS011;27925;41.874;12.526;2022-10-16T16:49:19;5.75;;;1.90;;
40537;SDS011;27925;41.874;12.526;2022-10-16T16:51:45;6.60;;;1.90;;
40537;SDS011;27925;41.874;12.526;2022-10-16T16:54:11;7.80;;;2.22;;
40537;SDS011;27925;41.874;12.526;2022-10-16T16:56:40;7.88;;;2.38;;
40537;SDS011;27925;41.874;12.526;2022-10-16T16:59:16;10.05;;;2.50;;